Time;durP1;ratioP1;P1;durP2;ratioP2;P2;SDS_P1;SDS_P2;PMS_P1;PMS_P2;Temp;Humidity;BMP_temperature;BMP_pressure;BME280_temperature;BME280_humidity;BME280_pressure;Samples;Min_cycle;Max_cycle;Signal;HPM_P1;HPM_P2
2023/01/27 00:00:20;;;;;;;18.90;6.27;;;;;;;;;;5042071;28;20221;-68
2023/01/27 00:02:46;;;;;;;14.33;6.43;;;;;;;;;;5032356;28;20240;-68
2023/01/27 00:05:13;;;;;;;16.37;6.77;;;;;;;;;;5045390;28;20182;-67
2023/01/27 00:07:44;;;;;;;29.67;7.43;;;;;;;;;;5041893;28;20700;-69
2023/01/27 00:10:14;;;;;;;21.07;7.67;;;;;;;;;;5043407;28;20190;-68
2023/01/27 00:15:25;;;;;;;23.10;8.07;;;;;;;;;;5042420;28;20201;-68
2023/01/27 00:17:50;;;;;;;18.33;7.50;;;;;;;;;;5045302;28;20194;-68
2023/01/27 00:25:49;;;;;;;23.50;8.83;;;;;;;;;;5040412;28;20276;-68
2023/01/27 00:28:21;;;;;;;24.67;8.93;;;;;;;;;;5031332;28;20249;-68
2023/01/27 00:30:48;;;;;;;22.73;8.70;;;;;;;;;;5028399;28;20189;-68
2023/01/27 00:33:29;;;;;;;22.27;9.23;;;;;;;;;;5019720;28;20206;-67
2023/01/27 00:36:05;;;;;;;23.40;9.40;;;;;;;;;;5041558;28;20192;-68
2023/01/27 00:38:39;;;;;;;24.00;9.77;;;;;;;;;;5028086;28;20488;-68
2023/01/27 00:41:14;;;;;;;24.07;10.83;;;;;;;;;;5027304;28;20201;-70
2023/01/27 00:43:40;;;;;;;27.97;11.97;;;;;;;;;;5029405;28;20229;-68
2023/01/27 00:46:06;;;;;;;28.33;11.67;;;;;;;;;;5033381;28;20202;-68
2023/01/27 00:48:31;;;;;;;28.50;12.17;;;;;;;;;;5027477;28;20190;-67
2023/01/27 00:50:56;;;;;;;26.37;12.03;;;;;;;;;;5030171;28;21610;-69
2023/01/27 00:53:22;;;;;;;26.33;12.30;;;;;;;;;;5029530;28;20236;-68
2023/01/27 00:55:48;;;;;;;27.53;12.70;;;;;;;;;;5024478;28;20236;-70
2023/01/27 00:58:13;;;;;;;25.47;11.90;;;;;;;;;;5036471;28;20193;-69
2023/01/27 01:00:39;;;;;;;24.50;12.83;;;;;;;;;;5032534;28;20594;-69
2023/01/27 01:03:04;;;;;;;23.07;11.87;;;;;;;;;;5033807;28;20615;-69
2023/01/27 01:05:30;;;;;;;24.43;12.00;;;;;;;;;;5016035;28;20194;-69
2023/01/27 01:07:55;;;;;;;24.03;11.67;;;;;;;;;;5027612;28;20206;-69
2023/01/27 01:10:21;;;;;;;23.47;10.23;;;;;;;;;;5040409;28;20657;-70
2023/01/27 01:12:46;;;;;;;23.93;13.13;;;;;;;;;;5032360;28;20213;-69
2023/01/27 01:15:12;;;;;;;26.60;12.87;;;;;;;;;;5026462;28;20194;-69
2023/01/27 01:17:37;;;;;;;24.70;11.93;;;;;;;;;;5022568;28;20728;-69
2023/01/27 01:20:03;;;;;;;22.70;12.03;;;;;;;;;;5028763;28;20202;-69
2023/01/27 01:22:28;;;;;;;24.17;12.67;;;;;;;;;;5023163;28;20190;-67
2023/01/27 01:24:56;;;;;;;26.77;12.47;;;;;;;;;;5027878;28;20190;-69
2023/01/27 01:27:22;;;;;;;30.23;12.07;;;;;;;;;;5026412;28;20305;-69
2023/01/27 01:29:47;;;;;;;20.90;12.23;;;;;;;;;;5026847;28;20296;-69
2023/01/27 01:32:13;;;;;;;23.53;12.07;;;;;;;;;;5020136;28;20195;-68
2023/01/27 01:34:38;;;;;;;23.47;11.40;;;;;;;;;;5024189;28;20216;-70
2023/01/27 01:37:04;;;;;;;29.77;12.50;;;;;;;;;;5028405;28;20528;-68
2023/01/27 01:39:30;;;;;;;24.83;12.23;;;;;;;;;;5027381;28;20228;-68
2023/01/27 01:41:56;;;;;;;24.97;12.20;;;;;;;;;;5027358;28;20228;-71
2023/01/27 01:44:26;;;;;;;27.43;12.50;;;;;;;;;;5021104;28;20604;-70
2023/01/27 01:46:51;;;;;;;21.57;12.43;;;;;;;;;;5024494;28;20259;-70
2023/01/27 01:49:22;;;;;;;22.90;11.73;;;;;;;;;;5018415;28;20599;-70
2023/01/27 01:51:55;;;;;;;27.30;12.87;;;;;;;;;;5025741;28;20198;-69
2023/01/27 01:54:26;;;;;;;24.33;12.53;;;;;;;;;;5016070;28;20694;-70
2023/01/27 01:56:56;;;;;;;21.03;13.17;;;;;;;;;;5027441;28;20197;-70
2023/01/27 01:59:27;;;;;;;19.83;11.90;;;;;;;;;;5032863;28;20599;-70
2023/01/27 02:01:55;;;;;;;20.30;10.43;;;;;;;;;;5029945;28;20330;-70
2023/01/27 02:04:26;;;;;;;19.40;10.57;;;;;;;;;;5021701;28;20192;-70
2023/01/27 02:07:10;;;;;;;20.30;11.67;;;;;;;;;;5042681;28;20660;-70
2023/01/27 02:09:37;;;;;;;16.90;10.83;;;;;;;;;;5030440;28;20507;-70
2023/01/27 02:12:02;;;;;;;20.27;10.57;;;;;;;;;;5019704;28;20306;-70
2023/01/27 02:14:28;;;;;;;20.13;10.60;;;;;;;;;;5024089;28;20706;-70
2023/01/27 02:16:53;;;;;;;16.10;9.83;;;;;;;;;;5029949;28;20252;-70
2023/01/27 02:19:47;;;;;;;14.70;9.23;;;;;;;;;;5028778;28;20201;-70
2023/01/27 02:22:21;;;;;;;16.10;9.60;;;;;;;;;;5017891;28;20190;-70
2023/01/27 02:24:54;;;;;;;15.20;9.53;;;;;;;;;;5030511;28;20189;-68
2023/01/27 02:27:20;;;;;;;17.50;9.20;;;;;;;;;;5034212;28;20230;-69
2023/01/27 02:29:45;;;;;;;17.03;9.87;;;;;;;;;;5030774;28;20205;-70
2023/01/27 02:32:26;;;;;;;18.93;9.47;;;;;;;;;;5029150;28;20237;-70
2023/01/27 02:34:52;;;;;;;16.20;9.33;;;;;;;;;;5040022;28;20212;-70
2023/01/27 02:37:19;;;;;;;15.40;9.63;;;;;;;;;;5020145;28;20749;-70
2023/01/27 02:39:47;;;;;;;17.00;9.20;;;;;;;;;;5023979;28;20194;-70
2023/01/27 02:42:14;;;;;;;14.10;9.07;;;;;;;;;;5026103;28;20218;-70
2023/01/27 02:44:39;;;;;;;16.53;10.03;;;;;;;;;;5033198;28;20186;-69
2023/01/27 02:47:05;;;;;;;16.47;10.20;;;;;;;;;;5041829;28;20197;-69
2023/01/27 02:49:30;;;;;;;14.33;9.33;;;;;;;;;;5029207;28;20240;-69
2023/01/27 02:51:56;;;;;;;15.97;9.67;;;;;;;;;;5027558;28;20190;-69
2023/01/27 02:54:24;;;;;;;14.20;8.90;;;;;;;;;;5012961;28;20233;-70
2023/01/27 02:56:49;;;;;;;11.20;7.87;;;;;;;;;;5024489;28;20200;-70
2023/01/27 02:59:14;;;;;;;13.33;8.17;;;;;;;;;;5023812;28;20294;-69
2023/01/27 03:01:40;;;;;;;14.93;8.50;;;;;;;;;;5039049;28;20276;-69
2023/01/27 03:04:07;;;;;;;12.33;8.50;;;;;;;;;;5026224;28;20193;-70
2023/01/27 03:06:32;;;;;;;13.40;8.40;;;;;;;;;;5026071;28;20194;-69
2023/01/27 03:08:58;;;;;;;15.10;8.10;;;;;;;;;;5027587;28;20684;-70
2023/01/27 03:14:08;;;;;;;9.23;6.87;;;;;;;;;;5025378;28;20214;-69
2023/01/27 03:19:18;;;;;;;12.13;7.57;;;;;;;;;;5038223;28;21047;-70
2023/01/27 03:21:44;;;;;;;14.23;8.23;;;;;;;;;;5041187;28;20277;-69
2023/01/27 03:24:09;;;;;;;13.27;8.30;;;;;;;;;;5017404;28;20193;-71
2023/01/27 03:26:37;;;;;;;10.37;7.30;;;;;;;;;;5038955;28;20229;-70
2023/01/27 03:31:54;;;;;;;10.90;7.47;;;;;;;;;;5025500;28;20214;-70
2023/01/27 03:34:20;;;;;;;11.03;7.63;;;;;;;;;;5027462;28;20733;-70
2023/01/27 03:47:41;;;;;;;10.33;6.23;;;;;;;;;;5047039;28;20254;-70
2023/01/27 03:50:10;;;;;;;10.60;6.70;;;;;;;;;;5030872;28;20630;-70
2023/01/27 03:52:36;;;;;;;10.50;6.60;;;;;;;;;;5027505;28;20217;-70
2023/01/27 03:55:03;;;;;;;9.13;6.60;;;;;;;;;;5033678;28;20301;-70
2023/01/27 03:57:28;;;;;;;12.23;6.97;;;;;;;;;;5031219;28;20638;-70
2023/01/27 03:59:53;;;;;;;8.53;5.90;;;;;;;;;;5037656;28;20214;-69
2023/01/27 04:07:47;;;;;;;8.27;6.13;;;;;;;;;;5030472;28;20256;-70
2023/01/27 04:10:13;;;;;;;10.07;6.30;;;;;;;;;;5027484;28;20558;-70
2023/01/27 04:12:38;;;;;;;9.07;6.23;;;;;;;;;;5028793;28;20190;-70
2023/01/27 04:15:04;;;;;;;8.70;5.70;;;;;;;;;;5028788;28;20198;-70
2023/01/27 04:17:37;;;;;;;8.33;6.37;;;;;;;;;;5033801;28;20567;-69
2023/01/27 04:20:03;;;;;;;9.90;5.87;;;;;;;;;;5018519;28;20191;-69
2023/01/27 04:22:28;;;;;;;10.80;5.83;;;;;;;;;;5022248;28;20190;-70
2023/01/27 04:24:54;;;;;;;9.87;5.87;;;;;;;;;;5031641;28;20768;-67
2023/01/27 04:27:19;;;;;;;8.10;6.00;;;;;;;;;;5027327;28;20314;-69
2023/01/27 04:29:45;;;;;;;8.83;5.67;;;;;;;;;;5030590;28;20227;-70
2023/01/27 04:32:11;;;;;;;8.23;5.80;;;;;;;;;;5029520;28;20723;-69
2023/01/27 04:34:38;;;;;;;9.67;5.87;;;;;;;;;;5033512;28;20198;-70
2023/01/27 04:37:05;;;;;;;9.03;5.80;;;;;;;;;;5043006;28;20702;-69
2023/01/27 04:39:31;;;;;;;10.10;6.17;;;;;;;;;;5025047;28;20324;-69
2023/01/27 04:41:57;;;;;;;9.03;5.87;;;;;;;;;;5029885;28;20237;-70
2023/01/27 04:44:23;;;;;;;7.57;5.97;;;;;;;;;;5024028;28;20272;-70
2023/01/27 04:46:49;;;;;;;9.57;5.50;;;;;;;;;;5008476;28;20197;-69
2023/01/27 04:49:14;;;;;;;9.77;5.23;;;;;;;;;;5024668;28;20182;-70
2023/01/27 04:51:40;;;;;;;9.53;5.77;;;;;;;;;;5027327;28;20220;-69
2023/01/27 04:54:06;;;;;;;9.40;5.50;;;;;;;;;;5028595;28;20282;-70
2023/01/27 04:56:34;;;;;;;7.60;5.10;;;;;;;;;;5030069;28;20204;-69
2023/01/27 04:59:02;;;;;;;9.23;5.67;;;;;;;;;;5024895;28;20661;-69
2023/01/27 05:01:28;;;;;;;12.37;5.70;;;;;;;;;;5039286;28;20212;-70
2023/01/27 05:03:54;;;;;;;9.50;5.47;;;;;;;;;;5027968;28;20193;-69
2023/01/27 05:06:20;;;;;;;8.13;5.43;;;;;;;;;;5024831;28;20268;-70
2023/01/27 05:08:46;;;;;;;9.60;5.70;;;;;;;;;;5036497;28;20281;-70
2023/01/27 05:11:11;;;;;;;11.30;5.17;;;;;;;;;;5019447;28;20294;-69
2023/01/27 05:13:37;;;;;;;10.90;5.33;;;;;;;;;;5038130;28;20275;-69
2023/01/27 05:16:17;;;;;;;9.47;5.23;;;;;;;;;;5028796;28;20240;-69
2023/01/27 05:18:44;;;;;;;11.60;5.60;;;;;;;;;;5042336;28;20197;-69
2023/01/27 05:21:16;;;;;;;8.03;5.03;;;;;;;;;;5033957;28;20189;-70
2023/01/27 05:23:41;;;;;;;8.57;5.27;;;;;;;;;;5025492;28;20696;-69
2023/01/27 05:26:08;;;;;;;8.47;4.87;;;;;;;;;;5030445;28;20298;-69
2023/01/27 05:28:35;;;;;;;10.50;5.10;;;;;;;;;;5029378;28;20327;-70
2023/01/27 05:31:09;;;;;;;8.00;5.30;;;;;;;;;;5034420;28;20201;-70
2023/01/27 05:33:35;;;;;;;8.53;4.87;;;;;;;;;;5039982;28;20205;-70
2023/01/27 05:36:02;;;;;;;6.07;3.90;;;;;;;;;;5034650;28;20563;-71
2023/01/27 05:38:28;;;;;;;6.67;4.57;;;;;;;;;;5029706;28;20197;-70
2023/01/27 05:40:55;;;;;;;10.17;4.60;;;;;;;;;;5025640;28;20194;-70
2023/01/27 05:43:21;;;;;;;5.67;4.13;;;;;;;;;;5039028;28;20217;-70
2023/01/27 05:45:46;;;;;;;7.70;3.77;;;;;;;;;;5032511;28;20234;-70
2023/01/27 05:48:12;;;;;;;6.83;4.10;;;;;;;;;;5005413;28;20666;-70
2023/01/27 05:50:37;;;;;;;7.50;4.23;;;;;;;;;;5031971;28;20220;-69
2023/01/27 05:53:02;;;;;;;5.83;4.03;;;;;;;;;;5027908;28;20206;-69
2023/01/27 05:55:28;;;;;;;6.43;3.60;;;;;;;;;;5043700;28;20303;-70
2023/01/27 05:57:53;;;;;;;7.33;4.27;;;;;;;;;;5041695;28;20185;-70
2023/01/27 06:00:19;;;;;;;6.83;3.87;;;;;;;;;;5032722;28;20632;-70
2023/01/27 06:02:44;;;;;;;6.07;3.90;;;;;;;;;;5036003;28;20196;-69
2023/01/27 06:05:10;;;;;;;6.10;4.23;;;;;;;;;;5036241;28;20566;-69
2023/01/27 06:07:35;;;;;;;6.83;4.03;;;;;;;;;;5042842;28;21125;-69
2023/01/27 06:10:00;;;;;;;5.93;3.90;;;;;;;;;;5030139;28;20190;-69
2023/01/27 06:12:26;;;;;;;7.73;4.07;;;;;;;;;;5031639;28;20332;-69
2023/01/27 06:14:52;;;;;;;7.20;4.30;;;;;;;;;;5034388;28;20296;-70
2023/01/27 06:17:17;;;;;;;5.83;3.83;;;;;;;;;;5030577;28;20201;-70
2023/01/27 06:19:45;;;;;;;6.47;4.87;;;;;;;;;;5036073;28;20193;-69
2023/01/27 06:22:10;;;;;;;6.37;4.43;;;;;;;;;;5036748;28;20480;-70
2023/01/27 06:24:36;;;;;;;5.33;4.23;;;;;;;;;;5032394;28;20285;-69
2023/01/27 06:27:01;;;;;;;7.63;4.30;;;;;;;;;;5023442;28;20647;-70
2023/01/27 06:29:26;;;;;;;6.13;4.47;;;;;;;;;;5033402;28;20200;-69
2023/01/27 06:31:52;;;;;;;4.53;3.90;;;;;;;;;;5026747;28;20260;-70
2023/01/27 06:34:17;;;;;;;5.17;4.33;;;;;;;;;;5031579;28;20703;-70
2023/01/27 06:36:42;;;;;;;4.93;4.00;;;;;;;;;;5042191;28;20227;-69
2023/01/27 06:39:08;;;;;;;5.67;4.07;;;;;;;;;;5033935;28;20196;-69
2023/01/27 06:41:34;;;;;;;6.30;4.17;;;;;;;;;;5019640;28;20530;-70
2023/01/27 06:43:59;;;;;;;5.07;3.90;;;;;;;;;;5028050;28;20445;-69
2023/01/27 06:46:24;;;;;;;4.30;3.60;;;;;;;;;;5022595;28;20202;-70
2023/01/27 06:48:50;;;;;;;5.27;3.60;;;;;;;;;;5025063;28;20256;-70
2023/01/27 06:51:15;;;;;;;3.80;3.40;;;;;;;;;;5028031;28;20265;-70
2023/01/27 06:53:40;;;;;;;4.43;3.63;;;;;;;;;;5027184;28;20217;-70
2023/01/27 06:56:06;;;;;;;6.20;3.27;;;;;;;;;;5024207;28;20259;-69
2023/01/27 06:58:32;;;;;;;3.90;3.50;;;;;;;;;;5025245;28;20273;-69
2023/01/27 07:00:57;;;;;;;4.13;3.20;;;;;;;;;;5034718;28;20224;-69
2023/01/27 07:03:23;;;;;;;6.57;3.90;;;;;;;;;;5030872;28;20215;-70
2023/01/27 07:05:48;;;;;;;4.93;3.40;;;;;;;;;;5031948;28;20244;-70
2023/01/27 07:08:26;;;;;;;4.97;3.28;;;;;;;;;;4779556;28;10000894;-69
2023/01/27 07:10:52;;;;;;;4.07;3.23;;;;;;;;;;5028834;28;20413;-69
2023/01/27 07:13:17;;;;;;;8.70;3.53;;;;;;;;;;5035850;28;20254;-69
2023/01/27 07:15:43;;;;;;;8.27;3.40;;;;;;;;;;5028659;28;20301;-69
2023/01/27 07:18:10;;;;;;;4.80;3.43;;;;;;;;;;5027510;28;20197;-69
2023/01/27 07:20:35;;;;;;;4.90;3.33;;;;;;;;;;5025808;28;20236;-69
2023/01/27 07:23:03;;;;;;;3.07;2.70;;;;;;;;;;5030951;28;21003;-69
2023/01/27 07:25:30;;;;;;;4.80;2.77;;;;;;;;;;5041733;28;20178;-69
2023/01/27 07:27:57;;;;;;;4.13;3.13;;;;;;;;;;5043946;28;20238;-69
2023/01/27 07:30:22;;;;;;;6.10;3.37;;;;;;;;;;5040985;28;20200;-68
2023/01/27 07:32:49;;;;;;;4.30;2.90;;;;;;;;;;5044073;28;20182;-69
2023/01/27 07:35:15;;;;;;;4.77;3.33;;;;;;;;;;5033787;28;20194;-69
2023/01/27 07:37:40;;;;;;;4.67;2.90;;;;;;;;;;5025278;28;20201;-69
2023/01/27 07:40:07;;;;;;;3.80;2.93;;;;;;;;;;5037079;28;20193;-69
2023/01/27 07:42:32;;;;;;;5.70;3.20;;;;;;;;;;5041014;28;20272;-69
2023/01/27 07:44:58;;;;;;;3.80;2.97;;;;;;;;;;5042728;28;20320;-69
2023/01/27 07:47:23;;;;;;;5.40;3.20;;;;;;;;;;5047364;28;20645;-69
2023/01/27 07:49:48;;;;;;;5.47;3.20;;;;;;;;;;5040278;28;20189;-69
2023/01/27 07:52:14;;;;;;;4.73;4.23;;;;;;;;;;5038912;28;20199;-69
2023/01/27 07:54:39;;;;;;;8.53;3.40;;;;;;;;;;5037924;28;20221;-69
2023/01/27 07:57:04;;;;;;;5.30;3.57;;;;;;;;;;5039666;28;20187;-69
2023/01/27 07:59:30;;;;;;;7.57;3.33;;;;;;;;;;5030341;28;20229;-69
2023/01/27 08:01:55;;;;;;;5.43;3.50;;;;;;;;;;5035685;28;20191;-69
2023/01/27 08:04:21;;;;;;;4.23;3.07;;;;;;;;;;5018008;28;20330;-69
2023/01/27 08:06:46;;;;;;;4.63;3.33;;;;;;;;;;5016365;28;20628;-69
2023/01/27 08:09:12;;;;;;;5.20;3.50;;;;;;;;;;5018669;28;20190;-69
2023/01/27 08:11:37;;;;;;;4.63;3.30;;;;;;;;;;5026573;28;20201;-69
2023/01/27 08:14:02;;;;;;;7.17;3.67;;;;;;;;;;5020137;28;20302;-69
2023/01/27 08:16:28;;;;;;;5.07;3.87;;;;;;;;;;5024731;28;20205;-69
2023/01/27 08:18:53;;;;;;;6.53;3.67;;;;;;;;;;5024100;28;20202;-69
2023/01/27 08:21:19;;;;;;;5.03;3.80;;;;;;;;;;5025977;28;20275;-69
2023/01/27 08:23:45;;;;;;;8.60;4.53;;;;;;;;;;5028630;28;20290;-69
2023/01/27 08:26:11;;;;;;;5.47;3.90;;;;;;;;;;5032482;28;20347;-69
2023/01/27 08:28:40;;;;;;;7.33;4.00;;;;;;;;;;5029640;28;20201;-69
2023/01/27 08:31:14;;;;;;;7.40;4.57;;;;;;;;;;5035668;28;20227;-69
2023/01/27 08:33:40;;;;;;;6.83;4.23;;;;;;;;;;5023167;28;20210;-69
2023/01/27 08:36:13;;;;;;;6.40;4.40;;;;;;;;;;5027298;28;20189;-69
2023/01/27 08:38:39;;;;;;;6.90;4.73;;;;;;;;;;5021539;28;20294;-69
2023/01/27 08:41:11;;;;;;;5.47;3.93;;;;;;;;;;5028312;28;20228;-69
2023/01/27 08:43:36;;;;;;;7.67;5.10;;;;;;;;;;5018517;28;20206;-68
2023/01/27 08:46:02;;;;;;;5.80;4.73;;;;;;;;;;5019674;28;20218;-68
2023/01/27 08:48:29;;;;;;;7.73;4.60;;;;;;;;;;5033139;28;20685;-67
2023/01/27 08:50:55;;;;;;;9.57;4.90;;;;;;;;;;5035925;28;20194;-68
2023/01/27 08:53:20;;;;;;;6.50;4.60;;;;;;;;;;5027750;28;20320;-68
2023/01/27 08:55:46;;;;;;;5.87;4.37;;;;;;;;;;5025744;28;20197;-67
2023/01/27 08:58:12;;;;;;;5.97;4.57;;;;;;;;;;5026121;28;20186;-68
2023/01/27 09:00:37;;;;;;;6.87;4.73;;;;;;;;;;5016787;28;20210;-68
2023/01/27 09:03:03;;;;;;;6.77;4.70;;;;;;;;;;5026848;28;20198;-68
2023/01/27 09:05:28;;;;;;;8.13;4.53;;;;;;;;;;5032292;28;20192;-68
2023/01/27 09:07:54;;;;;;;6.23;4.60;;;;;;;;;;5036235;28;20197;-69
2023/01/27 09:10:19;;;;;;;6.10;4.50;;;;;;;;;;5026802;28;20193;-68
2023/01/27 09:12:44;;;;;;;5.13;4.00;;;;;;;;;;5023502;28;20228;-68
2023/01/27 09:15:11;;;;;;;9.27;4.60;;;;;;;;;;5019224;28;20268;-68
2023/01/27 09:17:37;;;;;;;6.93;4.20;;;;;;;;;;5030353;28;20193;-68
2023/01/27 09:20:02;;;;;;;5.33;4.17;;;;;;;;;;5023817;28;20193;-68
2023/01/27 09:22:28;;;;;;;4.67;4.17;;;;;;;;;;5026846;28;20195;-68
2023/01/27 09:24:53;;;;;;;6.47;4.20;;;;;;;;;;5021015;28;20248;-68
2023/01/27 09:27:18;;;;;;;5.57;4.43;;;;;;;;;;5028420;28;20257;-68
2023/01/27 09:29:44;;;;;;;9.73;4.43;;;;;;;;;;5011859;28;20654;-68
2023/01/27 09:32:11;;;;;;;7.37;4.60;;;;;;;;;;5022285;28;20205;-69
2023/01/27 09:34:37;;;;;;;5.00;4.50;;;;;;;;;;5030869;28;20228;-69
2023/01/27 09:37:08;;;;;;;6.30;4.30;;;;;;;;;;5048613;28;20193;-68
2023/01/27 09:39:39;;;;;;;7.03;4.50;;;;;;;;;;5047455;28;20178;-68
2023/01/27 09:42:21;;;;;;;8.30;4.63;;;;;;;;;;5040956;28;20190;-69
2023/01/27 09:45:12;;;;;;;7.53;4.40;;;;;;;;;;5030322;28;20178;-69
2023/01/27 09:47:50;;;;;;;5.17;4.33;;;;;;;;;;5050039;28;20194;-69
2023/01/27 09:50:32;;;;;;;6.27;4.83;;;;;;;;;;5038829;28;20197;-68
2023/01/27 09:53:15;;;;;;;9.17;4.80;;;;;;;;;;5033785;28;20520;-69
2023/01/27 09:56:05;;;;;;;9.27;4.90;;;;;;;;;;5023679;28;20563;-69
2023/01/27 09:59:03;;;;;;;9.73;5.10;;;;;;;;;;5016173;28;20182;-69
2023/01/27 10:01:41;;;;;;;6.43;4.80;;;;;;;;;;5025777;28;20312;-69
2023/01/27 10:04:30;;;;;;;6.03;5.20;;;;;;;;;;5028972;28;20193;-68
2023/01/27 10:07:07;;;;;;;9.03;4.93;;;;;;;;;;5014382;28;20554;-68
2023/01/27 10:09:57;;;;;;;6.43;4.93;;;;;;;;;;5026773;28;20217;-68
2023/01/27 10:12:25;;;;;;;7.90;5.03;;;;;;;;;;5013546;28;20186;-68
2023/01/27 10:15:09;;;;;;;7.17;4.93;;;;;;;;;;5023554;28;20210;-67
2023/01/27 10:18:06;;;;;;;6.60;4.70;;;;;;;;;;5034840;28;20554;-67
2023/01/27 10:20:46;;;;;;;8.83;4.90;;;;;;;;;;5026517;28;20210;-68
2023/01/27 10:23:51;;;;;;;7.87;4.17;;;;;;;;;;5027146;28;20186;-67
2023/01/27 10:26:34;;;;;;;7.20;4.13;;;;;;;;;;5015124;28;20205;-67
2023/01/27 10:29:09;;;;;;;6.70;4.67;;;;;;;;;;5028192;28;20189;-68
2023/01/27 10:32:00;;;;;;;5.53;4.13;;;;;;;;;;5030329;28;20599;-68
2023/01/27 10:34:35;;;;;;;5.83;4.70;;;;;;;;;;5031469;28;20210;-68
2023/01/27 10:37:26;;;;;;;5.43;4.47;;;;;;;;;;5031292;28;20192;-68
2023/01/27 10:40:11;;;;;;;5.43;4.37;;;;;;;;;;5059988;28;20222;-68
2023/01/27 10:43:01;;;;;;;5.20;4.33;;;;;;;;;;5027341;28;20202;-68
2023/01/27 10:45:36;;;;;;;6.10;4.70;;;;;;;;;;5021562;28;20607;-68
2023/01/27 10:48:26;;;;;;;5.03;4.00;;;;;;;;;;5027791;28;20795;-68
2023/01/27 10:50:59;;;;;;;5.07;4.07;;;;;;;;;;5030078;28;20514;-68
2023/01/27 10:53:32;;;;;;;4.97;3.87;;;;;;;;;;5031055;28;20277;-69
2023/01/27 10:56:24;;;;;;;5.40;4.27;;;;;;;;;;5032416;28;20190;-67
2023/01/27 10:59:17;;;;;;;5.50;4.10;;;;;;;;;;5028557;28;20642;-67
2023/01/27 11:01:48;;;;;;;5.73;3.80;;;;;;;;;;5031379;28;20352;-67
2023/01/27 11:04:22;;;;;;;5.13;4.30;;;;;;;;;;5038760;28;20205;-67
2023/01/27 11:06:50;;;;;;;6.80;4.37;;;;;;;;;;5026573;28;20189;-67
2023/01/27 11:09:24;;;;;;;5.73;4.27;;;;;;;;;;5024412;28;20192;-68
2023/01/27 11:11:51;;;;;;;4.77;4.27;;;;;;;;;;5030210;28;20208;-67
2023/01/27 11:14:42;;;;;;;6.67;4.93;;;;;;;;;;5031587;28;20198;-68
2023/01/27 11:17:26;;;;;;;7.17;5.10;;;;;;;;;;5027557;28;20524;-68
2023/01/27 11:19:59;;;;;;;5.23;4.30;;;;;;;;;;5045383;28;20185;-68
2023/01/27 11:22:49;;;;;;;5.97;4.77;;;;;;;;;;5029342;28;20666;-68
2023/01/27 11:25:36;;;;;;;6.80;4.83;;;;;;;;;;5030466;28;20680;-67
2023/01/27 11:28:23;;;;;;;6.60;4.90;;;;;;;;;;5030201;28;20240;-67
2023/01/27 11:31:02;;;;;;;5.50;4.30;;;;;;;;;;5024482;28;20189;-68
2023/01/27 11:33:39;;;;;;;6.27;4.50;;;;;;;;;;5046264;28;20266;-68
2023/01/27 11:36:07;;;;;;;7.57;4.93;;;;;;;;;;5030298;28;20687;-68
2023/01/27 11:38:34;;;;;;;5.83;4.93;;;;;;;;;;5025939;28;20190;-69
2023/01/27 11:40:59;;;;;;;6.27;5.00;;;;;;;;;;5034842;28;20190;-67
2023/01/27 11:43:27;;;;;;;7.37;5.50;;;;;;;;;;5035851;28;20590;-67
2023/01/27 11:46:00;;;;;;;8.33;5.23;;;;;;;;;;5030959;28;20201;-67
2023/01/27 11:48:44;;;;;;;7.27;5.63;;;;;;;;;;5029563;28;20182;-67
2023/01/27 11:51:21;;;;;;;7.43;5.80;;;;;;;;;;5029562;28;20202;-67
2023/01/27 11:54:05;;;;;;;8.57;6.17;;;;;;;;;;5018473;28;20297;-67
2023/01/27 11:56:34;;;;;;;10.17;5.63;;;;;;;;;;5030297;28;20214;-68
2023/01/27 11:59:12;;;;;;;8.27;6.23;;;;;;;;;;5031007;28;20519;-68
2023/01/27 12:01:45;;;;;;;8.47;6.60;;;;;;;;;;5019619;28;20875;-68
2023/01/27 12:04:44;;;;;;;8.07;6.10;;;;;;;;;;5027877;28;20213;-68
2023/01/27 12:07:22;;;;;;;7.50;6.00;;;;;;;;;;5030652;28;20755;-68
2023/01/27 12:09:47;;;;;;;6.70;5.43;;;;;;;;;;5027798;28;20342;-68
2023/01/27 12:12:13;;;;;;;6.43;5.47;;;;;;;;;;5030182;28;20293;-68
2023/01/27 12:14:59;;;;;;;8.27;5.50;;;;;;;;;;5030021;28;20202;-68
2023/01/27 12:17:25;;;;;;;7.20;5.77;;;;;;;;;;5019743;28;20658;-68
2023/01/27 12:19:54;;;;;;;7.30;5.90;;;;;;;;;;5029489;28;20224;-68
2023/01/27 12:22:31;;;;;;;7.63;5.87;;;;;;;;;;5029574;28;20606;-69
2023/01/27 12:25:02;;;;;;;7.57;6.13;;;;;;;;;;5025819;28;20244;-68
2023/01/27 12:27:33;;;;;;;6.23;5.53;;;;;;;;;;5001885;28;1058380;-68
2023/01/27 12:30:02;;;;;;;7.23;5.70;;;;;;;;;;5048775;28;20483;-68
2023/01/27 12:32:40;;;;;;;9.00;5.73;;;;;;;;;;5021587;28;20185;-68
2023/01/27 12:35:22;;;;;;;10.50;6.17;;;;;;;;;;5037533;28;20300;-68
2023/01/27 12:37:53;;;;;;;7.07;5.90;;;;;;;;;;5029881;28;20565;-68
2023/01/27 12:40:24;;;;;;;8.90;5.63;;;;;;;;;;5015975;28;20332;-68
2023/01/27 12:43:04;;;;;;;6.50;5.63;;;;;;;;;;5040274;28;20569;-69
2023/01/27 12:45:34;;;;;;;8.07;6.03;;;;;;;;;;5026303;28;20182;-68
2023/01/27 12:48:08;;;;;;;7.10;5.60;;;;;;;;;;5038930;28;20189;-68
2023/01/27 12:51:05;;;;;;;7.03;5.57;;;;;;;;;;5043543;28;20186;-68
2023/01/27 12:53:31;;;;;;;9.23;5.50;;;;;;;;;;5012269;28;20725;-68
2023/01/27 12:56:15;;;;;;;7.93;5.87;;;;;;;;;;5027820;28;20186;-68
2023/01/27 12:58:52;;;;;;;7.40;5.37;;;;;;;;;;5018697;28;20281;-69
2023/01/27 13:01:35;;;;;;;6.73;5.30;;;;;;;;;;5024621;28;20210;-68
2023/01/27 13:04:13;;;;;;;6.17;4.97;;;;;;;;;;5030048;28;20186;-68
2023/01/27 13:06:48;;;;;;;7.23;5.23;;;;;;;;;;5023883;28;20205;-68
2023/01/27 13:09:47;;;;;;;5.07;3.93;;;;;;;;;;5030241;28;20661;-68
2023/01/27 13:12:19;;;;;;;4.93;4.30;;;;;;;;;;5022363;28;20281;-67
2023/01/27 13:14:50;;;;;;;6.97;4.87;;;;;;;;;;5017649;28;20689;-67
2023/01/27 13:17:36;;;;;;;5.90;4.30;;;;;;;;;;5021412;28;20289;-67
2023/01/27 13:20:12;;;;;;;5.57;4.30;;;;;;;;;;5028603;28;20261;-67
2023/01/27 13:22:43;;;;;;;6.00;3.63;;;;;;;;;;5041802;28;20185;-67
2023/01/27 13:25:17;;;;;;;5.77;4.00;;;;;;;;;;5032885;28;20273;-67
2023/01/27 13:27:45;;;;;;;4.67;3.83;;;;;;;;;;5025916;28;20356;-67
2023/01/27 13:30:32;;;;;;;4.20;3.80;;;;;;;;;;5030711;28;20186;-67
2023/01/27 13:33:18;;;;;;;4.93;3.77;;;;;;;;;;5037768;28;20196;-67
2023/01/27 13:35:54;;;;;;;5.20;4.03;;;;;;;;;;5039707;28;20185;-67
2023/01/27 13:38:37;;;;;;;5.90;4.73;;;;;;;;;;5022253;28;20181;-68
2023/01/27 13:41:11;;;;;;;4.80;4.30;;;;;;;;;;5029527;28;20210;-67
2023/01/27 13:43:40;;;;;;;4.87;4.30;;;;;;;;;;5031276;28;20653;-67
2023/01/27 13:46:14;;;;;;;6.47;4.43;;;;;;;;;;5028086;28;20586;-67
2023/01/27 13:48:48;;;;;;;4.73;4.20;;;;;;;;;;5040015;28;20183;-68
2023/01/27 13:51:16;;;;;;;4.57;4.00;;;;;;;;;;5034145;28;20195;-67
2023/01/27 13:53:43;;;;;;;5.23;4.30;;;;;;;;;;5048852;28;20284;-67
2023/01/27 13:56:46;;;;;;;5.30;4.77;;;;;;;;;;5033060;28;20190;-67
2023/01/27 13:59:25;;;;;;;5.07;4.43;;;;;;;;;;5022469;28;20231;-67
2023/01/27 14:02:06;;;;;;;5.33;4.50;;;;;;;;;;5016536;28;20394;-68
2023/01/27 14:04:46;;;;;;;6.47;4.67;;;;;;;;;;5023589;28;20225;-67
2023/01/27 14:07:20;;;;;;;5.03;4.53;;;;;;;;;;5014844;28;20187;-68
2023/01/27 14:10:07;;;;;;;5.17;4.67;;;;;;;;;;5024907;28;20186;-68
2023/01/27 14:12:55;;;;;;;5.20;4.50;;;;;;;;;;5030051;28;20244;-68
2023/01/27 14:15:31;;;;;;;5.03;4.53;;;;;;;;;;5036058;28;20213;-68
2023/01/27 14:18:28;;;;;;;6.57;4.20;;;;;;;;;;5021781;28;20281;-68
2023/01/27 14:21:13;;;;;;;4.90;4.20;;;;;;;;;;5022287;28;20213;-68
2023/01/27 14:23:59;;;;;;;5.60;4.40;;;;;;;;;;5031214;28;20365;-68
2023/01/27 14:26:46;;;;;;;5.53;3.77;;;;;;;;;;5039452;28;20194;-68
2023/01/27 14:29:40;;;;;;;4.27;3.33;;;;;;;;;;5025599;28;20275;-68
2023/01/27 14:32:33;;;;;;;5.17;3.30;;;;;;;;;;5013222;28;20178;-67
2023/01/27 14:35:17;;;;;;;4.17;3.77;;;;;;;;;;5023684;28;20272;-67
2023/01/27 14:37:49;;;;;;;4.33;3.83;;;;;;;;;;5033200;28;20198;-68
2023/01/27 14:40:26;;;;;;;4.30;3.90;;;;;;;;;;5038626;28;20194;-67
2023/01/27 14:43:03;;;;;;;4.63;3.90;;;;;;;;;;5026612;28;20248;-67
2023/01/27 14:45:37;;;;;;;3.80;3.40;;;;;;;;;;5039168;28;20197;-68
2023/01/27 14:48:23;;;;;;;3.90;3.60;;;;;;;;;;5032428;28;20536;-67
2023/01/27 14:50:55;;;;;;;4.33;3.93;;;;;;;;;;5025731;28;20566;-67
2023/01/27 14:53:30;;;;;;;3.80;3.43;;;;;;;;;;5030056;28;20774;-67
2023/01/27 14:56:28;;;;;;;3.80;3.20;;;;;;;;;;5023881;28;20254;-66
2023/01/27 14:58:56;;;;;;;3.23;2.93;;;;;;;;;;5018708;28;20605;-67
2023/01/27 15:01:32;;;;;;;3.60;3.23;;;;;;;;;;5020770;28;20218;-68
2023/01/27 15:04:18;;;;;;;3.00;2.80;;;;;;;;;;5038949;28;20649;-67
2023/01/27 15:06:54;;;;;;;3.00;2.80;;;;;;;;;;5036485;28;20221;-66
2023/01/27 15:09:59;;;;;;;3.07;2.60;;;;;;;;;;5039468;28;20250;-67
2023/01/27 15:12:50;;;;;;;3.20;2.90;;;;;;;;;;5026801;28;20186;-66
2023/01/27 15:15:44;;;;;;;2.97;2.67;;;;;;;;;;5019582;28;20221;-67
2023/01/27 15:18:30;;;;;;;3.30;2.60;;;;;;;;;;5031153;28;20704;-67
2023/01/27 15:21:20;;;;;;;3.50;2.70;;;;;;;;;;5037334;28;20193;-68
2023/01/27 15:23:48;;;;;;;2.70;2.47;;;;;;;;;;5028064;28;20225;-67
2023/01/27 15:26:17;;;;;;;4.10;2.60;;;;;;;;;;5024176;28;20235;-67
2023/01/27 15:28:43;;;;;;;3.13;2.53;;;;;;;;;;5028901;28;20190;-67
2023/01/27 15:31:15;;;;;;;3.23;2.77;;;;;;;;;;5031084;28;20688;-67
2023/01/27 15:34:02;;;;;;;2.73;2.50;;;;;;;;;;5031784;28;20256;-67
2023/01/27 15:36:30;;;;;;;2.90;2.70;;;;;;;;;;5037963;28;20276;-67